KDRA/DRA METAR and TAF weather

Enter ICAO airport designator
Station Type Date Time Source
KDRA METAR 2019/06/26 17:53 UTC NOAA

KDRA 261753Z AUTO 21019G30KT 10SM CLR 31/M02 A2991 RMK AO2 PK WND 19030/1750 SLP073 T03111017 10311 20183 53003


Station Type Date Time Source
KDRA Decoded METAR 2019/06/26 17:53 UTC NOAA

DESERT ROCK AIRPORT, NV, United States (KDRA) 36-38N 116-02W 1006M
Jun 26, 2019 - 01:53 PM EDT / 2019.06.26 1753 UTC
Wind: from the SSW (210 degrees) at 22 MPH (19 KT) gusting to 35 MPH (30 KT):0
Visibility: 10 mile(s):0
Sky conditions: clear
Temperature: 88.0 F (31.1 C)
Dew Point: 28.9 F (-1.7 C)
Relative Humidity: 11%
Pressure (altimeter): 29.91 in. Hg (1012 hPa)
Pressure tendency: 0.01 inches (0.3 hPa) higher than three hours ago
ob: KDRA 261753Z AUTO 21019G30KT 10SM CLR 31/M02 A2991 RMK AO2 PK WND 19030/1750 SLP073 T03111017 10311 20183 53003
cycle: 18

Station Type Date Time Source
KDRA TAF 2011/12/07 06:36 UTC NOAA

TAF KDRA 070532Z 0706/0806 VRB04KT P6SM SKC

Example: see airport list